Strona główna
METAR-TAF:

METAR-TAF

Lotnisko :

Port lotniczy Belgrad

Belgrad, Serbia

Szerokość geograficzna: 44-49N, Długość geograficzna: 020-17E, wysokość: 96 m

Aktualna obserwacja pogody

Raport powstał 20 minut temu, godzina 05:30 UTC
Wiatr 3 kt od południowo-południowy zachód
Temperatura 7°C
Wilgotność 53%
Ciśnienie 1023 hPa
Widzialność: 9000 m

METAR: LYBE 090530Z 21003KT 9000 NSC 07/M02 Q1023 NOSIG

czas: 07:50 (05:50 UTC)

Prognoza

Raport powstał 50 minut temu, godzina 05:00 UTC
Prognoza ważna od 09 godzina 06 UTC do 10 godzina 06 UTC
Wiatr 5 kt od północny wschód
Widzialność 10 km lub więcej
Brak chmur poniżej 1500 m i brak chmur cumulonimbus

TAF: LYBE 090500Z 0906/1006 04005KT CAVOK TX23/0913Z TN07/1004Z

Obserwacja i prognoza pogody dla ponad 4000 lotnisk (raport METAR i TAF).

Dostępne stacje oznaczono żółtymi i czerwonymi punktami na mapie.

Najedź kursorem aby zobaczyć nazwę stacji.

Kliknij aby zobaczyć obserwacje i prognozy pogody.

Aby zmienić mapę: kliknij na zielony przycisk z czarnym krzyżykiem, aby powiększyć; na zielony przycisk z myślnikiem, aby pomniejszyć; na zielone strzałki, aby przejść do map sąsiednich.


METAR-TAF: